createdAt,value
2019-02-24T00:02:18.536Z,8.20
2019-02-24T00:04:48.832Z,8.47
2019-02-24T00:07:19.208Z,8.13
2019-02-24T00:09:49.765Z,7.40
2019-02-24T00:12:20.341Z,8.27
2019-02-24T00:14:51.047Z,7.67
2019-02-24T00:17:21.396Z,7.87
2019-02-24T00:19:51.760Z,9.13
2019-02-24T00:22:22.256Z,8.40
2019-02-24T00:24:52.592Z,7.87
2019-02-24T00:27:22.899Z,7.70
2019-02-24T00:29:53.275Z,7.97
2019-02-24T00:32:23.688Z,7.77
2019-02-24T00:34:53.993Z,7.77
2019-02-24T00:37:24.360Z,7.10
2019-02-24T00:39:54.777Z,7.80
2019-02-24T00:42:25.262Z,8.03
2019-02-24T00:44:55.632Z,7.50
2019-02-24T00:47:26.065Z,7.23
2019-02-24T00:49:56.908Z,7.83
2019-02-24T00:52:27.523Z,8.53
2019-02-24T00:54:58.343Z,7.10
2019-02-24T00:57:29.120Z,7.77
2019-02-24T00:59:59.885Z,8.77
2019-02-24T01:02:30.311Z,7.60
2019-02-24T01:05:00.817Z,7.20
2019-02-24T01:07:31.363Z,8.97
2019-02-24T01:10:01.865Z,8.50
2019-02-24T01:12:32.409Z,9.50
2019-02-24T01:15:03.248Z,9.43
2019-02-24T01:17:33.741Z,8.33
2019-02-24T01:20:08.791Z,8.87
2019-02-24T01:22:39.371Z,9.23
2019-02-24T01:25:11.433Z,8.53
2019-02-24T01:27:41.725Z,9.00
2019-02-24T01:30:12.176Z,8.93
2019-02-24T01:32:42.457Z,8.67
2019-02-24T01:35:12.857Z,9.37
2019-02-24T01:37:43.289Z,9.10
2019-02-24T01:40:13.744Z,9.33
2019-02-24T01:42:44.085Z,9.77
2019-02-24T01:45:14.872Z,9.97
2019-02-24T01:47:45.297Z,9.30
2019-02-24T01:50:15.970Z,9.70
2019-02-24T01:52:46.273Z,10.10
2019-02-24T01:55:16.622Z,10.17
2019-02-24T01:57:47.113Z,9.70
2019-02-24T02:00:17.500Z,10.53
2019-02-24T02:02:48.167Z,10.00
2019-02-24T02:05:18.593Z,10.27
2019-02-24T02:07:49.288Z,10.40
2019-02-24T02:10:19.737Z,10.97
2019-02-24T02:12:50.336Z,11.70
2019-02-24T02:15:21.034Z,9.50
2019-02-24T02:17:51.448Z,9.60
2019-02-24T02:20:21.829Z,10.53
2019-02-24T02:22:52.489Z,9.53
2019-02-24T02:25:23.177Z,10.60
2019-02-24T02:27:55.202Z,10.37
2019-02-24T02:30:27.339Z,9.90
2019-02-24T02:32:57.756Z,9.57
2019-02-24T02:35:28.057Z,10.53
2019-02-24T02:37:58.545Z,9.93
2019-02-24T02:40:29.123Z,10.00
2019-02-24T02:42:59.356Z,10.10
2019-02-24T02:45:29.733Z,10.57
2019-02-24T02:48:00.190Z,9.93
2019-02-24T02:50:30.937Z,9.73
2019-02-24T02:53:01.486Z,9.23
2019-02-24T02:55:32.276Z,10.20
2019-02-24T02:58:02.844Z,10.70
2019-02-24T03:00:36.908Z,11.47
2019-02-24T03:03:07.334Z,10.63
2019-02-24T03:05:39.035Z,10.17
2019-02-24T03:08:12.225Z,11.97
2019-02-24T03:10:42.784Z,10.87
2019-02-24T03:13:13.432Z,11.10
2019-02-24T03:15:43.930Z,11.07
2019-02-24T03:18:14.327Z,11.80
2019-02-24T03:20:44.834Z,12.20
2019-02-24T03:23:15.461Z,10.33
2019-02-24T03:25:51.666Z,11.30
2019-02-24T03:28:22.302Z,11.87
2019-02-24T03:30:52.725Z,10.20
2019-02-24T03:33:23.109Z,12.67
2019-02-24T03:35:53.642Z,11.67
2019-02-24T03:38:24.117Z,12.00
2019-02-24T03:40:54.572Z,12.60
2019-02-24T03:43:25.313Z,12.57
2019-02-24T03:45:55.786Z,13.53
2019-02-24T03:48:26.453Z,12.40
2019-02-24T03:50:57.063Z,10.83
2019-02-24T03:53:27.636Z,10.80
2019-02-24T03:55:58.093Z,11.57
2019-02-24T03:58:28.549Z,13.23
2019-02-24T04:00:59.205Z,12.17
2019-02-24T04:03:29.936Z,13.30
2019-02-24T04:06:00.497Z,12.87
2019-02-24T04:08:30.966Z,13.07
2019-02-24T04:11:01.283Z,11.63
2019-02-24T04:13:31.881Z,11.70
2019-02-24T04:16:02.309Z,12.63
2019-02-24T04:18:32.795Z,11.37
2019-02-24T04:21:03.390Z,13.10
2019-02-24T04:23:33.913Z,12.60
2019-02-24T04:26:04.135Z,12.13
2019-02-24T04:28:34.521Z,12.23
2019-02-24T04:31:04.887Z,13.67
2019-02-24T04:33:35.549Z,12.27
2019-02-24T04:36:06.179Z,12.37
2019-02-24T04:38:36.974Z,12.23
2019-02-24T04:41:07.335Z,13.03
2019-02-24T04:43:37.849Z,12.93
2019-02-24T04:46:08.087Z,11.77
2019-02-24T04:48:38.780Z,11.43
2019-02-24T04:51:09.413Z,11.83
2019-02-24T04:53:39.919Z,12.27
2019-02-24T04:56:11.930Z,12.23
2019-02-24T04:58:42.220Z,13.37
2019-02-24T05:01:12.773Z,12.97
2019-02-24T05:03:43.437Z,13.10
2019-02-24T05:06:13.876Z,13.07
2019-02-24T05:08:44.513Z,13.53
2019-02-24T05:11:15.189Z,12.20
2019-02-24T05:13:45.920Z,12.03
2019-02-24T05:16:16.318Z,12.37
2019-02-24T05:18:46.630Z,12.20
2019-02-24T05:21:16.866Z,12.33
2019-02-24T05:23:47.274Z,12.97
2019-02-24T05:26:17.925Z,12.93
2019-02-24T05:28:48.296Z,12.73
2019-02-24T05:31:18.794Z,13.33
2019-02-24T05:33:49.412Z,14.03
2019-02-24T05:36:19.874Z,14.30
2019-02-24T05:38:50.206Z,16.30
2019-02-24T05:41:21.079Z,14.77
2019-02-24T05:43:51.685Z,13.47
2019-02-24T05:46:22.537Z,14.40
2019-02-24T05:48:53.216Z,14.57
2019-02-24T05:51:23.783Z,17.60
2019-02-24T05:53:55.098Z,15.37
2019-02-24T05:56:25.637Z,14.73
2019-02-24T05:58:56.092Z,14.33
2019-02-24T06:01:26.520Z,16.07
2019-02-24T06:03:57.109Z,16.27
2019-02-24T06:06:27.562Z,16.73
2019-02-24T06:08:58.424Z,16.20
2019-02-24T06:11:29.098Z,14.20
2019-02-24T06:13:59.828Z,16.73
2019-02-24T06:16:30.346Z,17.00
2019-02-24T06:19:00.810Z,17.67
2019-02-24T06:21:31.848Z,16.33
2019-02-24T06:24:02.563Z,15.57
2019-02-24T06:26:33.315Z,15.37
2019-02-24T06:29:03.959Z,16.80
2019-02-24T06:31:34.733Z,16.33
2019-02-24T06:34:05.709Z,16.23
2019-02-24T06:36:36.507Z,16.77
2019-02-24T06:39:08.482Z,16.07
2019-02-24T06:41:39.211Z,17.73
2019-02-24T06:44:10.092Z,18.10
2019-02-24T06:46:40.467Z,19.50
2019-02-24T06:49:11.582Z,17.37
2019-02-24T06:51:42.474Z,18.13
2019-02-24T06:54:13.055Z,16.63
2019-02-24T06:56:43.747Z,17.17
2019-02-24T06:59:14.461Z,16.03
2019-02-24T07:01:46.183Z,18.37
2019-02-24T07:04:17.188Z,18.40
2019-02-24T07:06:47.966Z,17.77
2019-02-24T07:09:19.182Z,17.80
2019-02-24T07:11:49.695Z,19.37
2019-02-24T07:14:20.342Z,18.63
2019-02-24T07:16:50.800Z,18.30
2019-02-24T07:19:23.282Z,17.10
2019-02-24T07:21:53.849Z,18.03
2019-02-24T07:24:24.543Z,18.50
2019-02-24T07:26:55.112Z,18.53
2019-02-24T07:29:25.620Z,19.60
2019-02-24T07:31:56.285Z,19.70
2019-02-24T07:34:26.919Z,19.77
2019-02-24T07:36:57.573Z,19.30
2019-02-24T07:39:28.064Z,20.40
2019-02-24T07:41:58.839Z,19.00
2019-02-24T07:44:29.548Z,17.43
2019-02-24T07:47:00.015Z,19.43
2019-02-24T07:49:30.667Z,18.57
2019-02-24T07:52:01.091Z,19.23
2019-02-24T07:54:31.751Z,21.10
2019-02-24T07:57:03.106Z,18.27
2019-02-24T07:59:33.649Z,20.53
2019-02-24T08:02:04.732Z,19.17
2019-02-24T08:04:35.430Z,20.90
2019-02-24T08:07:06.134Z,18.73
2019-02-24T08:09:36.803Z,19.93
2019-02-24T08:12:07.557Z,18.03
2019-02-24T08:14:38.369Z,20.57
2019-02-24T08:17:09.001Z,20.07
2019-02-24T08:19:42.676Z,21.57
2019-02-24T08:22:13.429Z,19.30
2019-02-24T08:24:44.192Z,21.30
2019-02-24T08:27:14.828Z,20.80
2019-02-24T08:29:45.241Z,19.03
2019-02-24T08:32:16.072Z,18.77
2019-02-24T08:34:46.570Z,20.27
2019-02-24T08:37:17.637Z,20.00
2019-02-24T08:39:47.989Z,18.57
2019-02-24T08:42:18.605Z,19.07
2019-02-24T08:44:49.045Z,18.90
2019-02-24T08:47:19.754Z,18.97
2019-02-24T08:49:50.381Z,18.63
2019-02-24T08:52:20.734Z,18.27
2019-02-24T08:54:51.351Z,17.17
2019-02-24T08:57:22.529Z,16.93
2019-02-24T08:59:53.332Z,18.80
2019-02-24T09:02:24.136Z,17.67
2019-02-24T09:04:54.850Z,17.57
2019-02-24T09:07:25.563Z,16.63
2019-02-24T09:09:57.532Z,16.90
2019-02-24T09:12:28.004Z,16.17
2019-02-24T09:14:58.843Z,15.73
2019-02-24T09:17:29.630Z,16.47
2019-02-24T09:20:00.349Z,17.30
2019-02-24T09:22:31.149Z,15.97
2019-02-24T09:25:03.325Z,15.03
2019-02-24T09:27:34.102Z,16.20
2019-02-24T09:30:07.785Z,15.67
2019-02-24T09:32:38.394Z,14.60
2019-02-24T09:35:11.940Z,16.33
2019-02-24T09:37:42.477Z,14.77
2019-02-24T09:40:13.482Z,13.93
2019-02-24T09:42:44.065Z,14.93
2019-02-24T09:45:14.446Z,13.47
2019-02-24T09:47:47.132Z,14.90
2019-02-24T09:50:17.684Z,14.00
2019-02-24T09:52:48.450Z,12.37
2019-02-24T09:55:19.259Z,12.07
2019-02-24T09:57:49.910Z,13.23
2019-02-24T10:00:22.040Z,12.07
2019-02-24T10:02:52.932Z,11.80
2019-02-24T10:05:25.158Z,12.30
2019-02-24T10:07:55.761Z,10.50
2019-02-24T10:10:26.496Z,11.90
2019-02-24T10:12:57.033Z,11.70
2019-02-24T10:15:27.478Z,12.20
2019-02-24T10:17:58.176Z,11.73
2019-02-24T10:20:28.837Z,12.33
2019-02-24T10:22:59.530Z,11.03
2019-02-24T10:25:30.277Z,11.50
2019-02-24T10:28:01.020Z,11.80
2019-02-24T10:30:33.215Z,11.10
2019-02-24T10:33:04.271Z,12.67
2019-02-24T10:35:34.972Z,10.60
2019-02-24T10:38:05.645Z,10.90
2019-02-24T10:40:36.448Z,11.53
2019-02-24T10:43:07.257Z,11.27
2019-02-24T10:45:37.909Z,9.67
2019-02-24T10:48:14.053Z,11.30
2019-02-24T10:50:41.110Z,11.43
2019-02-24T10:53:11.728Z,11.77
2019-02-24T10:55:42.690Z,12.17
2019-02-24T10:58:13.358Z,11.77
2019-02-24T11:00:44.490Z,12.37
2019-02-24T11:03:14.905Z,10.53
2019-02-24T11:05:45.701Z,11.57
2019-02-24T11:08:16.407Z,10.77
2019-02-24T11:10:47.711Z,10.07
2019-02-24T11:13:18.474Z,10.40
2019-02-24T11:15:52.127Z,11.57
2019-02-24T11:18:23.069Z,9.77
2019-02-24T11:20:53.893Z,10.43
2019-02-24T11:23:24.647Z,10.40
2019-02-24T11:25:55.295Z,9.50
2019-02-24T11:28:26.577Z,9.13
2019-02-24T11:30:57.302Z,9.43
2019-02-24T11:33:27.932Z,9.57
2019-02-24T11:35:58.996Z,9.63
2019-02-24T11:38:29.674Z,8.80
2019-02-24T11:41:00.772Z,9.53
2019-02-24T11:43:31.368Z,8.97
2019-02-24T11:46:03.865Z,8.87
2019-02-24T11:48:34.558Z,9.93
2019-02-24T11:51:05.334Z,8.90
2019-02-24T11:53:36.223Z,8.53
2019-02-24T11:56:07.063Z,8.43
2019-02-24T11:58:37.874Z,8.37
2019-02-24T12:01:08.755Z,8.13
2019-02-24T12:03:39.616Z,8.67
2019-02-24T12:06:11.989Z,7.73
2019-02-24T12:08:42.812Z,8.33
2019-02-24T12:11:14.100Z,8.00
2019-02-24T12:13:44.761Z,7.90
2019-02-24T12:16:15.636Z,7.50
2019-02-24T12:18:46.696Z,7.47
2019-02-24T12:21:17.719Z,7.87
2019-02-24T12:23:48.493Z,6.80
2019-02-24T12:26:19.365Z,7.40
2019-02-24T12:28:49.901Z,17.70
2019-02-24T12:31:20.577Z,20.90
2019-02-24T12:33:51.156Z,14.10
2019-02-24T12:36:21.864Z,16.90
2019-02-24T12:38:52.562Z,12.87
2019-02-24T12:41:23.321Z,48.17
2019-02-24T12:43:54.192Z,23.53
2019-02-24T12:46:26.304Z,16.13
2019-02-24T12:48:56.880Z,18.37
2019-02-24T12:51:27.757Z,9.30
2019-02-24T12:53:58.369Z,9.73
2019-02-24T12:56:29.129Z,14.23
2019-02-24T12:59:01.734Z,10.00
2019-02-24T13:01:33.535Z,15.13
2019-02-24T13:04:04.916Z,14.37
2019-02-24T13:06:35.637Z,48.07
2019-02-24T13:09:08.945Z,19.17
2019-02-24T13:11:39.593Z,18.60
2019-02-24T13:14:10.039Z,8.73
2019-02-24T13:16:41.250Z,7.47
2019-02-24T13:19:11.963Z,7.37
2019-02-24T13:21:42.721Z,8.20
2019-02-24T13:24:14.933Z,9.73
2019-02-24T13:26:45.607Z,7.10
2019-02-24T13:29:16.194Z,8.30
2019-02-24T13:31:46.865Z,7.00
2019-02-24T13:34:17.573Z,13.07
2019-02-24T13:36:48.148Z,16.00
2019-02-24T13:39:18.768Z,7.93
2019-02-24T13:41:49.459Z,16.60
2019-02-24T13:44:20.426Z,8.63
2019-02-24T13:46:51.690Z,12.33
2019-02-24T13:49:22.208Z,18.87
2019-02-24T13:51:52.973Z,14.20
2019-02-24T13:54:23.637Z,13.60
2019-02-24T13:56:54.253Z,10.93
2019-02-24T13:59:24.953Z,10.83
2019-02-24T14:01:55.612Z,9.30
2019-02-24T14:04:26.263Z,18.67
2019-02-24T14:06:56.992Z,36.43
2019-02-24T14:09:27.676Z,13.20
2019-02-24T14:11:58.391Z,7.07
2019-02-24T14:14:28.894Z,13.53
2019-02-24T14:16:59.634Z,20.33
2019-02-24T14:19:30.227Z,14.50
2019-02-24T14:22:00.977Z,20.47
2019-02-24T14:24:31.762Z,15.60
2019-02-24T14:27:02.342Z,7.97
2019-02-24T14:29:33.267Z,13.83
2019-02-24T14:32:04.028Z,12.27
2019-02-24T14:34:34.677Z,16.17
2019-02-24T14:37:14.383Z,10.93
2019-02-24T14:39:46.476Z,8.80
2019-02-24T14:42:17.108Z,19.07
2019-02-24T14:44:47.704Z,21.73
2019-02-24T14:47:18.488Z,37.20
2019-02-24T14:49:49.379Z,10.93
2019-02-24T14:52:20.262Z,10.93
2019-02-24T14:54:50.970Z,25.03
2019-02-24T14:57:21.785Z,11.43
2019-02-24T14:59:52.475Z,9.07
2019-02-24T15:02:23.132Z,16.53
2019-02-24T15:04:54.041Z,8.77
2019-02-24T15:07:24.736Z,10.37
2019-02-24T15:09:55.489Z,7.70
2019-02-24T15:12:25.869Z,6.67
2019-02-24T15:14:56.669Z,11.77
2019-02-24T15:17:27.688Z,6.00
2019-02-24T15:19:58.277Z,7.67
2019-02-24T15:22:30.883Z,8.27
2019-02-24T15:25:01.969Z,8.93
2019-02-24T15:27:32.415Z,9.73
2019-02-24T15:30:03.159Z,12.63
2019-02-24T15:32:33.748Z,8.80
2019-02-24T15:35:04.713Z,8.40
2019-02-24T15:37:35.281Z,14.50
2019-02-24T15:40:08.629Z,7.50
2019-02-24T15:42:39.192Z,10.47
2019-02-24T15:45:10.713Z,6.53
2019-02-24T15:47:41.344Z,9.47
2019-02-24T15:50:13.716Z,16.00
2019-02-24T15:52:44.177Z,10.23
2019-02-24T15:55:15.869Z,11.17
2019-02-24T15:57:46.820Z,8.47
2019-02-24T16:00:24.304Z,8.17
2019-02-24T16:03:01.497Z,6.73
2019-02-24T16:05:27.666Z,6.57
2019-02-24T16:07:58.049Z,7.47
2019-02-24T16:10:28.632Z,14.33
2019-02-24T16:12:59.496Z,7.63
2019-02-24T16:15:30.078Z,14.73
2019-02-24T16:18:00.865Z,5.90
2019-02-24T16:20:33.391Z,4.27
2019-02-24T16:23:04.324Z,7.10
2019-02-24T16:25:35.279Z,6.13
2019-02-24T16:28:06.002Z,7.70
2019-02-24T16:30:36.836Z,6.33
2019-02-24T16:33:10.646Z,7.00
2019-02-24T16:35:39.474Z,5.30
2019-02-24T16:38:10.025Z,7.20
2019-02-24T16:40:40.765Z,5.90
2019-02-24T16:43:11.300Z,7.90
2019-02-24T16:45:41.767Z,6.57
2019-02-24T16:48:12.546Z,5.03
2019-02-24T16:50:42.957Z,5.07
2019-02-24T16:53:30.989Z,7.87
2019-02-24T16:56:19.253Z,7.07
2019-02-24T16:59:07.541Z,9.77
2019-02-24T17:01:55.140Z,6.43
2019-02-24T17:04:43.417Z,6.60
2019-02-24T17:07:31.891Z,9.77
2019-02-24T17:10:21.633Z,19.13
2019-02-24T17:13:09.584Z,14.20
2019-02-24T17:15:57.785Z,8.27
2019-02-24T17:18:28.523Z,7.40
2019-02-24T17:20:59.105Z,6.27
2019-02-24T17:23:29.588Z,6.90
2019-02-24T17:25:59.888Z,5.77
2019-02-24T17:28:30.328Z,6.03
2019-02-24T17:31:00.837Z,5.20
2019-02-24T17:33:32.744Z,5.23
2019-02-24T17:36:03.299Z,4.87
2019-02-24T17:38:33.603Z,5.03
2019-02-24T17:41:03.997Z,5.27
2019-02-24T17:43:34.273Z,4.90
2019-02-24T17:46:04.682Z,5.53
2019-02-24T17:48:35.050Z,4.90
2019-02-24T17:51:05.469Z,8.47
2019-02-24T17:53:35.837Z,4.93
2019-02-24T17:56:06.287Z,4.53
2019-02-24T17:58:36.579Z,5.40
2019-02-24T18:01:07.093Z,5.57
2019-02-24T18:03:39.731Z,5.30
2019-02-24T18:06:09.389Z,5.33
2019-02-24T18:08:40.301Z,6.03
2019-02-24T18:11:10.955Z,6.30
2019-02-24T18:13:41.336Z,4.57
2019-02-24T18:16:11.737Z,5.43
2019-02-24T18:18:42.122Z,6.37
2019-02-24T18:21:12.568Z,4.47
2019-02-24T18:23:43.137Z,4.17
2019-02-24T18:26:13.656Z,6.47
2019-02-24T18:28:44.046Z,5.07
2019-02-24T18:31:14.454Z,3.50
2019-02-24T18:33:48.289Z,5.27
2019-02-24T18:36:17.241Z,4.10
2019-02-24T18:38:47.777Z,3.87
2019-02-24T18:41:18.161Z,4.60
2019-02-24T18:43:48.690Z,3.80
2019-02-24T18:46:19.225Z,4.50
2019-02-24T18:48:49.533Z,6.70
2019-02-24T18:51:19.883Z,6.13
2019-02-24T18:53:50.251Z,6.73
2019-02-24T18:56:21.049Z,3.87
2019-02-24T18:58:51.594Z,4.03
2019-02-24T19:01:21.805Z,6.27
2019-02-24T19:03:57.681Z,6.73
2019-02-24T19:06:24.437Z,6.83
2019-02-24T19:08:54.980Z,3.17
2019-02-24T19:11:25.541Z,3.47
2019-02-24T19:13:55.749Z,4.27
2019-02-24T19:16:26.324Z,4.20
2019-02-24T19:18:56.678Z,3.53
2019-02-24T19:21:26.895Z,3.93
2019-02-24T19:23:57.261Z,3.20
2019-02-24T19:26:27.807Z,2.77
2019-02-24T19:28:58.093Z,3.70
2019-02-24T19:31:28.561Z,3.43
2019-02-24T19:34:06.447Z,3.10
2019-02-24T19:36:30.993Z,3.70
2019-02-24T19:39:01.449Z,3.67
2019-02-24T19:41:31.828Z,3.77
2019-02-24T19:44:02.370Z,3.03
2019-02-24T19:46:32.717Z,3.37
2019-02-24T19:49:03.110Z,4.77
2019-02-24T19:51:33.601Z,5.20
2019-02-24T19:54:03.895Z,4.23
2019-02-24T19:56:34.346Z,5.10
2019-02-24T19:59:04.884Z,2.57
2019-02-24T20:01:35.590Z,3.60
2019-02-24T20:04:06.153Z,3.00
2019-02-24T20:06:36.824Z,3.27
2019-02-24T20:09:07.252Z,3.10
2019-02-24T20:11:37.564Z,3.33
2019-02-24T20:14:07.929Z,3.87
2019-02-24T20:16:38.692Z,2.67
2019-02-24T20:19:09.261Z,3.20
2019-02-24T20:21:39.843Z,2.87
2019-02-24T20:24:10.341Z,2.27
2019-02-24T20:26:40.705Z,3.00
2019-02-24T20:29:11.293Z,2.53
2019-02-24T20:31:41.644Z,2.63
2019-02-24T20:34:12.092Z,2.40
2019-02-24T20:36:42.674Z,2.10
2019-02-24T20:39:13.051Z,2.40
2019-02-24T20:41:43.462Z,2.17
2019-02-24T20:44:13.836Z,2.33
2019-02-24T20:46:44.325Z,3.27
2019-02-24T20:49:14.961Z,3.03
2019-02-24T20:51:45.617Z,3.50
2019-02-24T20:54:16.160Z,3.57
2019-02-24T20:56:46.432Z,2.80
2019-02-24T20:59:16.862Z,3.70
2019-02-24T21:01:47.358Z,2.57
2019-02-24T21:04:17.813Z,2.90
2019-02-24T21:06:48.221Z,2.40
2019-02-24T21:09:18.668Z,2.77
2019-02-24T21:11:49.193Z,2.70
2019-02-24T21:14:19.469Z,2.57
2019-02-24T21:16:49.703Z,2.60
2019-02-24T21:19:20.047Z,2.60
2019-02-24T21:21:50.671Z,2.30
2019-02-24T21:24:21.125Z,2.67
2019-02-24T21:26:51.443Z,2.70
2019-02-24T21:29:21.820Z,2.47
2019-02-24T21:31:52.234Z,2.10
2019-02-24T21:34:22.525Z,2.50
2019-02-24T21:36:53.126Z,2.60
2019-02-24T21:39:23.521Z,1.90
2019-02-24T21:41:54.201Z,2.00
2019-02-24T21:44:24.482Z,2.13
2019-02-24T21:46:54.716Z,2.17
2019-02-24T21:49:24.957Z,2.37
2019-02-24T21:51:55.184Z,2.10
2019-02-24T21:54:25.581Z,2.33
2019-02-24T21:56:55.897Z,2.20
2019-02-24T21:59:26.245Z,2.33
2019-02-24T22:01:56.466Z,2.40
2019-02-24T22:04:26.902Z,2.30
2019-02-24T22:06:57.113Z,2.23
2019-02-24T22:09:27.364Z,2.53
2019-02-24T22:11:57.841Z,2.20
2019-02-24T22:14:28.402Z,2.23
2019-02-24T22:16:59.037Z,2.20
2019-02-24T22:19:29.465Z,2.00
2019-02-24T22:21:59.939Z,2.37
2019-02-24T22:24:30.332Z,1.97
2019-02-24T22:27:00.565Z,2.40
2019-02-24T22:29:30.985Z,2.07
2019-02-24T22:32:01.381Z,2.43
2019-02-24T22:34:31.741Z,2.13
2019-02-24T22:37:02.109Z,1.90
2019-02-24T22:39:32.465Z,1.80
2019-02-24T22:42:02.750Z,1.87
2019-02-24T22:44:33.058Z,1.93
2019-02-24T22:47:03.293Z,1.60
2019-02-24T22:49:33.657Z,2.40
2019-02-24T22:54:46.542Z,2.30
2019-02-24T22:57:17.049Z,2.07
2019-02-24T22:59:47.278Z,2.20
2019-02-24T23:02:19.572Z,1.93
2019-02-24T23:04:49.917Z,2.33
2019-02-24T23:07:20.268Z,1.90
2019-02-24T23:09:50.705Z,2.07
2019-02-24T23:12:21.203Z,1.60
2019-02-24T23:14:51.633Z,2.60
2019-02-24T23:17:22.469Z,1.97
2019-02-24T23:19:53.118Z,3.50
2019-02-24T23:22:23.567Z,2.20
2019-02-24T23:24:54.149Z,2.13
2019-02-24T23:27:24.603Z,2.20
2019-02-24T23:29:54.951Z,2.50
2019-02-24T23:32:25.324Z,2.57
2019-02-24T23:34:55.918Z,2.43
2019-02-24T23:37:26.547Z,2.70
2019-02-24T23:39:57.091Z,2.33
2019-02-24T23:42:27.468Z,2.43
2019-02-24T23:44:57.779Z,3.00
2019-02-24T23:47:28.250Z,2.53
2019-02-24T23:49:58.649Z,2.93
2019-02-24T23:52:28.932Z,2.60
2019-02-24T23:54:59.388Z,2.33
2019-02-24T23:57:29.919Z,2.37
